Time;durP1;ratioP1;P1;durP2;ratioP2;P2;SDS_P1;SDS_P2;PMS_P1;PMS_P2;Temp;Humidity;BMP_temperature;BMP_pressure;BME280_temperature;BME280_humidity;BME280_pressure;Samples;Min_cycle;Max_cycle;Signal;HPM_P1;HPM_P2
2023/12/26 00:02:12;;;;;;;3.80;0.67;;;11.50;99.90;;;;;;5054354;28;20035;-52
2023/12/26 00:04:38;;;;;;;1.10;0.60;;;11.50;99.90;;;;;;5054239;28;20037;-55
2023/12/26 00:07:04;;;;;;;1.07;0.50;;;11.50;99.90;;;;;;5054432;28;20035;-55
2023/12/26 00:09:29;;;;;;;0.50;0.50;;;11.50;99.90;;;;;;5054052;28;20079;-54
2023/12/26 00:11:55;;;;;;;1.27;0.50;;;11.60;99.90;;;;;;5054222;28;20021;-55
2023/12/26 00:14:21;;;;;;;0.98;0.57;;;11.50;99.90;;;;;;5054178;28;20039;-57
2023/12/26 00:16:46;;;;;;;1.30;0.73;;;11.50;99.90;;;;;;5054309;28;20032;-53
2023/12/26 00:19:12;;;;;;;0.63;0.40;;;11.60;99.90;;;;;;5053907;28;20170;-53
2023/12/26 00:21:39;;;;;;;0.60;0.50;;;11.60;99.90;;;;;;5054217;28;20114;-53
2023/12/26 00:24:05;;;;;;;0.33;0.30;;;11.60;99.90;;;;;;5054272;28;20044;-55
2023/12/26 00:26:31;;;;;;;1.20;0.80;;;11.60;99.90;;;;;;5054130;28;20103;-55
2023/12/26 00:28:58;;;;;;;0.52;0.50;;;11.60;99.90;;;;;;5036085;28;20394;-55
2023/12/26 00:31:24;;;;;;;2.33;0.93;;;11.50;99.90;;;;;;5036091;28;20033;-53
2023/12/26 00:33:49;;;;;;;1.08;0.57;;;11.50;99.90;;;;;;5053956;28;20039;-53
2023/12/26 00:36:18;;;;;;;2.97;0.73;;;11.50;99.90;;;;;;5053934;28;20099;-55
2023/12/26 00:38:45;;;;;;;1.33;0.40;;;11.50;99.90;;;;;;5054044;28;20143;-55
2023/12/26 00:41:12;;;;;;;0.53;0.30;;;11.50;99.90;;;;;;5054773;28;20033;-55
2023/12/26 00:43:37;;;;;;;0.50;0.30;;;11.50;99.90;;;;;;5035880;28;20481;-56
2023/12/26 00:46:03;;;;;;;0.20;0.20;;;11.60;99.90;;;;;;5053618;28;20043;-55
2023/12/26 00:48:29;;;;;;;1.00;0.40;;;11.60;99.90;;;;;;5035554;28;20035;-55
2023/12/26 00:50:54;;;;;;;0.70;0.63;;;11.60;99.90;;;;;;5035631;28;20037;-56
2023/12/26 00:53:21;;;;;;;0.70;0.32;;;11.60;99.90;;;;;;5035936;28;20028;-56
2023/12/26 00:55:47;;;;;;;0.45;0.40;;;11.60;99.90;;;;;;5035625;28;20108;-55
2023/12/26 00:58:13;;;;;;;0.65;0.38;;;11.60;99.90;;;;;;5053388;28;20025;-55
2023/12/26 01:00:38;;;;;;;0.50;0.40;;;11.60;99.90;;;;;;5053229;28;20029;-55
2023/12/26 01:03:04;;;;;;;1.10;0.50;;;11.60;99.90;;;;;;5053080;28;20036;-56
2023/12/26 01:05:31;;;;;;;0.53;0.30;;;11.50;99.90;;;;;;5035469;28;20029;-55
2023/12/26 01:07:57;;;;;;;1.17;0.53;;;11.40;99.90;;;;;;5053340;28;20032;-50
2023/12/26 01:10:23;;;;;;;1.00;0.50;;;11.30;99.90;;;;;;5035432;28;20021;-54
2023/12/26 01:12:49;;;;;;;1.67;0.60;;;11.20;99.90;;;;;;5035290;28;20482;-56
2023/12/26 01:15:14;;;;;;;1.50;0.90;;;11.10;99.90;;;;;;5035251;28;20037;-56
2023/12/26 01:17:40;;;;;;;5.63;1.73;;;11.00;99.90;;;;;;5053126;28;20100;-55
2023/12/26 01:20:06;;;;;;;4.17;1.57;;;10.90;99.90;;;;;;5053038;28;20033;-56
2023/12/26 01:22:32;;;;;;;2.63;1.30;;;10.90;99.90;;;;;;5052998;28;20032;-56
2023/12/26 01:24:58;;;;;;;1.97;0.83;;;10.80;99.90;;;;;;5034943;28;20035;-55
2023/12/26 01:27:24;;;;;;;5.50;2.00;;;10.80;99.90;;;;;;5053009;28;20398;-54
2023/12/26 01:29:50;;;;;;;4.53;1.63;;;10.70;99.90;;;;;;5034713;28;20035;-56
2023/12/26 01:32:16;;;;;;;2.43;1.17;;;10.70;99.90;;;;;;5034797;28;20385;-55
2023/12/26 01:34:41;;;;;;;1.90;0.70;;;10.60;99.90;;;;;;5052863;28;20318;-56
2023/12/26 01:37:07;;;;;;;1.13;0.50;;;10.60;99.90;;;;;;5034880;28;20455;-55
2023/12/26 01:39:33;;;;;;;0.77;0.60;;;10.60;99.90;;;;;;5017986;28;20045;-55
2023/12/26 01:41:58;;;;;;;2.30;0.83;;;10.60;99.90;;;;;;5034534;28;20037;-56
2023/12/26 01:44:24;;;;;;;1.20;0.80;;;10.50;99.90;;;;;;5034576;28;20040;-51
2023/12/26 01:46:50;;;;;;;1.30;0.63;;;10.50;99.90;;;;;;5034532;28;20123;-55
2023/12/26 01:49:18;;;;;;;1.47;0.90;;;10.50;99.90;;;;;;5052114;28;20017;-56
2023/12/26 01:51:45;;;;;;;0.60;0.60;;;10.40;99.90;;;;;;5034715;28;20150;-54
2023/12/26 01:54:11;;;;;;;1.40;0.60;;;10.40;99.90;;;;;;5034722;28;20187;-58
2023/12/26 01:56:37;;;;;;;0.70;0.50;;;10.40;99.90;;;;;;5052463;28;20412;-56
2023/12/26 01:59:03;;;;;;;1.10;0.70;;;10.40;99.90;;;;;;5034526;28;20406;-54
2023/12/26 02:01:30;;;;;;;0.73;0.60;;;10.30;99.90;;;;;;5034431;28;20474;-55
2023/12/26 02:03:59;;;;;;;1.30;0.60;;;10.30;99.90;;;;;;5034370;28;20109;-52
2023/12/26 02:06:24;;;;;;;2.90;0.90;;;10.20;99.90;;;;;;5034464;28;20154;-55
2023/12/26 02:08:50;;;;;;;1.63;0.77;;;10.30;99.90;;;;;;5052084;28;20075;-55
2023/12/26 02:11:16;;;;;;;1.13;0.70;;;10.30;99.90;;;;;;5052161;28;20028;-54
2023/12/26 02:13:42;;;;;;;1.07;0.60;;;10.20;99.90;;;;;;5034236;28;20478;-55
2023/12/26 02:16:14;;;;;;;0.67;0.60;;;10.30;99.90;;;;;;5033646;28;20470;-56
2023/12/26 02:18:40;;;;;;;1.70;0.73;;;10.30;99.90;;;;;;5033914;28;20033;-56
2023/12/26 02:21:06;;;;;;;1.10;0.50;;;10.20;99.90;;;;;;5034277;28;20469;-56
2023/12/26 02:23:33;;;;;;;0.93;0.53;;;10.20;99.90;;;;;;5034448;28;20037;-55
2023/12/26 02:26:01;;;;;;;1.10;0.60;;;10.20;99.90;;;;;;5051806;28;20029;-55
2023/12/26 02:28:27;;;;;;;1.17;0.60;;;10.20;99.90;;;;;;5051752;28;20028;-54
2023/12/26 02:30:54;;;;;;;0.53;0.50;;;10.20;99.90;;;;;;5033966;28;20078;-55
2023/12/26 02:33:20;;;;;;;2.77;0.70;;;10.20;99.90;;;;;;5033994;28;20434;-54
2023/12/26 02:35:46;;;;;;;0.50;0.50;;;10.20;99.90;;;;;;5034700;28;20079;-53
2023/12/26 02:38:12;;;;;;;0.67;0.53;;;10.20;99.90;;;;;;5051848;28;20076;-55
2023/12/26 02:40:37;;;;;;;1.20;0.60;;;10.20;99.90;;;;;;5033802;28;20086;-55
2023/12/26 02:43:03;;;;;;;1.03;0.53;;;10.20;99.90;;;;;;5017442;28;20132;-55
2023/12/26 02:45:29;;;;;;;0.40;0.40;;;10.20;99.90;;;;;;5033880;28;20043;-54
2023/12/26 02:47:54;;;;;;;0.90;0.60;;;10.20;99.90;;;;;;5033795;28;20033;-52
2023/12/26 02:50:20;;;;;;;1.27;0.50;;;10.10;99.90;;;;;;5051760;28;20390;-55
2023/12/26 02:52:46;;;;;;;0.40;0.33;;;10.10;99.90;;;;;;5033771;28;20021;-54
2023/12/26 02:55:11;;;;;;;1.17;0.47;;;10.10;99.90;;;;;;5051595;28;20375;-55
2023/12/26 02:57:37;;;;;;;0.50;0.50;;;10.10;99.90;;;;;;5033532;28;20052;-53
2023/12/26 03:00:05;;;;;;;2.93;0.73;;;10.10;99.90;;;;;;5033807;28;20116;-55
2023/12/26 03:02:31;;;;;;;0.50;0.40;;;10.10;99.90;;;;;;5033522;28;20040;-56
2023/12/26 03:04:56;;;;;;;1.43;0.40;;;10.10;99.90;;;;;;5033514;28;20029;-54
2023/12/26 03:07:22;;;;;;;3.23;0.70;;;10.10;99.90;;;;;;5033651;28;20025;-55
2023/12/26 03:09:48;;;;;;;2.20;0.50;;;10.10;99.90;;;;;;5051126;28;20120;-55
2023/12/26 03:12:13;;;;;;;2.27;1.10;;;10.10;99.90;;;;;;5051377;28;20115;-55
2023/12/26 03:14:39;;;;;;;0.93;0.50;;;10.10;99.90;;;;;;5051369;28;20021;-55
2023/12/26 03:17:05;;;;;;;1.40;0.60;;;10.10;99.90;;;;;;5033501;28;20036;-54
2023/12/26 03:19:30;;;;;;;1.13;0.47;;;10.10;99.90;;;;;;5033234;28;20025;-55
2023/12/26 03:21:56;;;;;;;1.63;0.53;;;10.10;99.90;;;;;;5033500;28;20159;-55
2023/12/26 03:24:21;;;;;;;0.90;0.57;;;10.10;99.90;;;;;;5051147;28;20032;-54
2023/12/26 03:26:47;;;;;;;0.73;0.50;;;10.10;99.90;;;;;;5035308;28;20482;-52
2023/12/26 03:29:12;;;;;;;0.37;0.30;;;10.10;99.90;;;;;;5036954;28;20032;-55
2023/12/26 03:31:45;;;;;;;0.77;0.60;;;10.10;99.90;;;;;;5036999;28;20095;-55
2023/12/26 03:34:11;;;;;;;2.60;0.60;;;10.10;99.90;;;;;;5037189;28;20021;-54
2023/12/26 03:36:44;;;;;;;0.70;0.40;;;10.10;99.90;;;;;;5054957;28;20033;-53
2023/12/26 03:39:10;;;;;;;0.93;0.50;;;10.10;99.90;;;;;;5036905;28;20065;-54
2023/12/26 03:41:36;;;;;;;1.57;0.50;;;10.10;99.90;;;;;;5054752;28;20415;-54
2023/12/26 03:44:02;;;;;;;0.53;0.40;;;10.00;99.90;;;;;;5036731;28;20118;-55
2023/12/26 03:46:28;;;;;;;1.43;0.70;;;10.00;99.90;;;;;;5037028;28;20021;-54
2023/12/26 03:48:53;;;;;;;0.53;0.30;;;10.00;99.90;;;;;;5054602;28;20450;-55
2023/12/26 03:51:19;;;;;;;1.20;0.70;;;10.00;99.90;;;;;;5036799;28;20029;-55
2023/12/26 03:53:45;;;;;;;1.20;0.60;;;10.10;99.90;;;;;;5037137;28;20035;-50
2023/12/26 03:56:10;;;;;;;0.93;0.57;;;10.00;99.90;;;;;;5020485;28;20033;-55
2023/12/26 03:58:36;;;;;;;1.17;0.50;;;10.00;99.90;;;;;;5036471;28;20064;-55
2023/12/26 04:01:02;;;;;;;1.17;0.57;;;10.10;99.90;;;;;;5036998;28;20083;-54
2023/12/26 04:03:28;;;;;;;1.70;0.60;;;10.00;99.90;;;;;;5036811;28;20032;-55
2023/12/26 04:05:54;;;;;;;1.77;0.70;;;10.00;99.90;;;;;;5054405;28;20436;-51
2023/12/26 04:08:19;;;;;;;2.87;0.70;;;10.00;99.90;;;;;;5036353;28;20074;-52
2023/12/26 04:10:45;;;;;;;1.23;0.63;;;10.00;99.90;;;;;;5036329;28;20036;-52
2023/12/26 04:13:11;;;;;;;2.33;0.60;;;10.00;99.90;;;;;;5036516;28;20062;-54
2023/12/26 04:15:37;;;;;;;1.67;0.60;;;10.00;99.90;;;;;;5036601;28;20037;-50
2023/12/26 04:18:02;;;;;;;1.37;0.70;;;10.00;99.90;;;;;;5036309;28;20029;-50
2023/12/26 04:20:28;;;;;;;2.27;0.70;;;10.00;99.90;;;;;;5036826;28;20032;-51
2023/12/26 04:22:54;;;;;;;1.63;0.90;;;10.00;99.90;;;;;;5036601;28;20039;-52
2023/12/26 04:25:22;;;;;;;3.07;1.00;;;10.00;99.90;;;;;;5036686;28;20036;-51
2023/12/26 04:27:48;;;;;;;3.27;1.30;;;10.10;99.90;;;;;;5054377;28;20444;-52
2023/12/26 04:30:15;;;;;;;3.00;1.13;;;10.10;99.90;;;;;;5036742;28;20029;-50
2023/12/26 04:32:41;;;;;;;3.57;1.20;;;10.10;99.90;;;;;;5020521;28;20543;-54
2023/12/26 04:35:07;;;;;;;2.90;1.10;;;10.10;99.90;;;;;;5037477;28;20033;-54
2023/12/26 04:37:32;;;;;;;2.93;1.20;;;10.20;99.90;;;;;;5036888;28;20056;-54
2023/12/26 04:39:58;;;;;;;2.53;1.20;;;10.20;99.90;;;;;;5037187;28;20032;-56
2023/12/26 04:42:23;;;;;;;2.63;1.00;;;10.20;99.90;;;;;;5037496;28;20461;-54
2023/12/26 04:44:49;;;;;;;2.37;0.77;;;10.20;99.90;;;;;;5036895;28;20044;-55
2023/12/26 04:47:15;;;;;;;1.20;0.70;;;10.20;99.90;;;;;;5036480;28;20101;-53
2023/12/26 04:49:40;;;;;;;1.67;0.50;;;10.20;99.90;;;;;;5035485;28;20076;-55
2023/12/26 04:52:06;;;;;;;1.83;0.50;;;10.20;99.90;;;;;;5035552;28;20025;-51
2023/12/26 04:54:32;;;;;;;1.37;0.63;;;10.20;99.90;;;;;;5035570;28;20498;-54
2023/12/26 04:56:57;;;;;;;1.10;0.60;;;10.20;99.90;;;;;;5035547;28;20032;-54
2023/12/26 04:59:23;;;;;;;1.03;0.40;;;10.20;99.90;;;;;;5035333;28;20071;-55
2023/12/26 05:01:50;;;;;;;0.70;0.40;;;10.20;99.90;;;;;;5035532;28;20029;-56
2023/12/26 05:04:15;;;;;;;1.30;0.50;;;10.20;99.90;;;;;;5035293;28;20044;-52
2023/12/26 05:06:41;;;;;;;1.37;0.50;;;10.10;99.90;;;;;;5035449;28;20033;-54
2023/12/26 05:09:07;;;;;;;1.73;0.60;;;10.10;99.90;;;;;;5035167;28;20033;-52
2023/12/26 05:11:33;;;;;;;2.33;0.43;;;10.10;99.90;;;;;;5035172;28;20028;-55
2023/12/26 05:14:00;;;;;;;1.00;0.40;;;10.10;99.90;;;;;;5035240;28;20029;-56
2023/12/26 05:16:25;;;;;;;2.30;0.50;;;10.10;99.90;;;;;;5035183;28;20033;-54
2023/12/26 05:18:51;;;;;;;1.03;0.40;;;10.10;99.90;;;;;;5052796;28;20071;-54
2023/12/26 05:21:18;;;;;;;1.47;0.50;;;10.10;99.90;;;;;;5035073;28;20036;-51
2023/12/26 05:23:45;;;;;;;1.80;0.40;;;10.10;99.90;;;;;;5035158;28;20025;-52
2023/12/26 05:26:11;;;;;;;1.37;0.50;;;10.00;99.90;;;;;;5034981;28;20039;-53
2023/12/26 05:28:37;;;;;;;1.00;0.30;;;10.10;99.90;;;;;;5034684;28;20025;-55
2023/12/26 05:31:04;;;;;;;1.70;0.40;;;10.10;99.90;;;;;;5035035;28;20048;-53
2023/12/26 05:33:31;;;;;;;2.13;0.53;;;10.10;99.90;;;;;;5035033;28;20390;-56
2023/12/26 05:35:56;;;;;;;1.20;0.60;;;10.00;99.90;;;;;;5035112;28;20485;-54
2023/12/26 05:38:22;;;;;;;2.33;0.50;;;10.00;99.90;;;;;;5052608;28;20095;-54
2023/12/26 05:40:49;;;;;;;1.13;0.50;;;10.00;99.90;;;;;;5034697;28;20056;-55
2023/12/26 05:43:15;;;;;;;0.80;0.40;;;10.00;99.90;;;;;;5034636;28;20083;-55
2023/12/26 05:45:42;;;;;;;0.87;0.50;;;9.90;99.90;;;;;;5034738;28;20032;-56
2023/12/26 05:48:08;;;;;;;1.50;0.60;;;9.90;99.90;;;;;;5034521;28;20071;-55
2023/12/26 05:50:33;;;;;;;1.70;0.67;;;9.90;99.90;;;;;;5034591;28;20551;-55
2023/12/26 05:53:02;;;;;;;2.00;0.70;;;9.90;99.90;;;;;;5034591;28;20426;-56
2023/12/26 05:55:27;;;;;;;0.93;0.57;;;9.90;99.90;;;;;;5034491;28;20037;-55
2023/12/26 05:57:53;;;;;;;1.60;0.60;;;9.90;99.90;;;;;;5034265;28;20029;-55
2023/12/26 06:00:19;;;;;;;4.80;1.30;;;9.90;99.90;;;;;;5034295;28;20025;-54
2023/12/26 06:02:45;;;;;;;2.70;1.10;;;9.90;99.90;;;;;;5034259;28;20032;-53
2023/12/26 06:05:12;;;;;;;0.97;0.60;;;9.90;99.90;;;;;;5034276;28;20436;-55
2023/12/26 06:07:38;;;;;;;3.03;1.00;;;10.00;99.90;;;;;;5034284;28;20033;-54
2023/12/26 06:10:05;;;;;;;1.87;0.93;;;10.00;99.90;;;;;;5034186;28;20397;-55
2023/12/26 06:12:32;;;;;;;4.23;0.97;;;10.00;99.90;;;;;;5034224;28;20536;-55
2023/12/26 06:14:57;;;;;;;2.07;0.90;;;10.00;99.90;;;;;;5034237;28;20044;-55
2023/12/26 06:17:24;;;;;;;1.93;0.90;;;10.00;99.90;;;;;;5034192;28;20025;-56
2023/12/26 06:19:49;;;;;;;2.27;1.30;;;10.10;99.90;;;;;;5033945;28;20025;-56
2023/12/26 06:22:15;;;;;;;3.77;1.20;;;10.10;99.90;;;;;;5034272;28;20382;-55
2023/12/26 06:24:41;;;;;;;1.30;0.83;;;10.00;99.90;;;;;;5034484;28;20045;-54
2023/12/26 06:27:06;;;;;;;3.07;1.00;;;10.00;99.90;;;;;;5034469;28;20025;-57
2023/12/26 06:29:32;;;;;;;6.63;1.20;;;9.90;99.90;;;;;;5034136;28;20482;-56
2023/12/26 06:31:58;;;;;;;3.13;0.97;;;10.00;99.90;;;;;;5033818;28;20025;-54
2023/12/26 06:34:24;;;;;;;3.10;1.00;;;10.00;99.90;;;;;;5034050;28;20087;-55
2023/12/26 06:36:49;;;;;;;3.40;1.10;;;10.00;99.90;;;;;;5034158;28;20033;-52
2023/12/26 06:39:15;;;;;;;3.53;1.03;;;10.00;99.90;;;;;;5033777;28;20039;-54
2023/12/26 06:41:42;;;;;;;4.17;1.30;;;9.90;99.90;;;;;;5033825;28;20039;-55
2023/12/26 06:44:09;;;;;;;1.33;0.80;;;9.90;99.90;;;;;;5033785;28;20032;-55
2023/12/26 06:46:40;;;;;;;2.30;1.10;;;9.90;99.90;;;;;;5033852;28;20032;-55
2023/12/26 06:49:06;;;;;;;5.17;1.30;;;10.00;99.90;;;;;;5051927;28;20029;-55
2023/12/26 06:51:32;;;;;;;7.30;1.40;;;9.90;99.90;;;;;;5034038;28;20021;-55
2023/12/26 06:53:57;;;;;;;4.20;1.40;;;9.90;99.90;;;;;;5033683;28;20025;-56
2023/12/26 06:56:23;;;;;;;3.73;1.40;;;9.80;99.90;;;;;;5033804;28;20033;-55
2023/12/26 06:58:48;;;;;;;4.37;1.20;;;9.80;99.90;;;;;;5033441;28;20516;-55
2023/12/26 07:01:15;;;;;;;6.00;1.43;;;9.80;99.90;;;;;;5034796;28;20040;-54
2023/12/26 07:03:42;;;;;;;3.87;1.00;;;9.80;99.90;;;;;;5037838;28;20037;-56
2023/12/26 07:06:08;;;;;;;5.30;1.50;;;9.90;99.90;;;;;;5037714;28;20124;-56
2023/12/26 07:08:33;;;;;;;2.23;1.13;;;9.90;99.90;;;;;;5055396;28;20298;-56
2023/12/26 07:10:59;;;;;;;3.00;1.00;;;10.00;99.90;;;;;;5055415;28;20120;-56
2023/12/26 07:13:25;;;;;;;3.00;0.97;;;9.90;99.90;;;;;;5055561;28;20036;-56
2023/12/26 07:15:52;;;;;;;1.23;0.80;;;9.90;99.90;;;;;;5055619;28;20429;-57
2023/12/26 07:18:17;;;;;;;5.53;1.60;;;9.90;99.90;;;;;;5055205;28;20068;-56
2023/12/26 07:20:43;;;;;;;2.13;1.00;;;9.80;99.90;;;;;;5055418;28;20053;-56
2023/12/26 07:23:08;;;;;;;3.70;1.10;;;9.80;99.90;;;;;;5055632;28;20526;-57
2023/12/26 07:25:34;;;;;;;2.67;0.87;;;9.70;99.90;;;;;;5055332;28;20163;-56
2023/12/26 07:28:00;;;;;;;5.17;1.03;;;9.70;99.90;;;;;;5055042;28;20061;-56
2023/12/26 07:30:25;;;;;;;1.57;0.67;;;9.60;99.90;;;;;;5055249;28;20036;-56
2023/12/26 07:32:51;;;;;;;2.77;0.80;;;9.60;99.90;;;;;;5055222;28;20481;-57
2023/12/26 07:35:16;;;;;;;1.90;0.60;;;9.60;99.90;;;;;;5055158;28;20036;-57
2023/12/26 07:37:42;;;;;;;4.57;1.13;;;9.50;99.90;;;;;;5055101;28;20029;-56
2023/12/26 07:40:08;;;;;;;5.63;1.17;;;9.50;99.90;;;;;;5054920;28;20547;-57
2023/12/26 07:42:34;;;;;;;4.07;0.70;;;9.60;99.90;;;;;;5054874;28;20408;-55
2023/12/26 07:44:59;;;;;;;6.83;0.80;;;9.60;99.90;;;;;;5054974;28;20021;-57
2023/12/26 07:47:25;;;;;;;1.50;0.60;;;9.60;99.90;;;;;;5055028;28;20119;-53
2023/12/26 07:49:51;;;;;;;3.20;0.67;;;9.70;99.90;;;;;;5054653;28;20029;-55
2023/12/26 07:52:17;;;;;;;5.27;0.77;;;9.70;99.90;;;;;;5054759;28;20029;-52
2023/12/26 07:54:42;;;;;;;1.43;0.57;;;9.60;99.90;;;;;;5054772;28;20036;-56
2023/12/26 07:57:08;;;;;;;6.67;0.60;;;9.60;99.90;;;;;;5054754;28;20764;-56
2023/12/26 07:59:33;;;;;;;3.63;1.07;;;9.60;99.90;;;;;;5054395;28;20496;-56
2023/12/26 08:01:59;;;;;;;6.03;1.20;;;9.70;99.90;;;;;;5054646;28;20037;-56
2023/12/26 08:04:25;;;;;;;3.30;0.70;;;9.70;99.90;;;;;;5054452;28;20029;-55
2023/12/26 08:06:50;;;;;;;4.10;0.70;;;9.70;99.90;;;;;;5054575;28;20029;-56
2023/12/26 08:09:16;;;;;;;3.97;0.63;;;9.70;99.90;;;;;;5054087;28;20036;-56
2023/12/26 08:11:42;;;;;;;3.93;0.50;;;9.70;99.90;;;;;;5054502;28;20120;-56
2023/12/26 08:14:07;;;;;;;1.70;0.53;;;9.70;99.90;;;;;;5053110;28;20489;-55
2023/12/26 08:16:33;;;;;;;4.73;0.57;;;9.60;99.90;;;;;;5055404;28;20059;-56
2023/12/26 08:19:00;;;;;;;7.57;1.13;;;9.50;99.90;;;;;;5054403;28;20088;-52
2023/12/26 08:21:26;;;;;;;5.60;0.80;;;9.50;99.90;;;;;;5054126;28;20057;-54
2023/12/26 08:23:51;;;;;;;3.93;0.63;;;9.50;99.90;;;;;;5054141;28;20069;-54
2023/12/26 08:26:17;;;;;;;2.10;0.53;;;9.50;99.90;;;;;;5054186;28;20488;-56
2023/12/26 08:28:42;;;;;;;5.93;0.80;;;9.50;99.90;;;;;;5053805;28;20036;-56
2023/12/26 08:31:08;;;;;;;4.83;0.63;;;9.50;99.90;;;;;;5053925;28;20032;-56
2023/12/26 08:33:35;;;;;;;5.67;0.77;;;9.50;99.90;;;;;;5054078;28;20025;-56
2023/12/26 08:36:02;;;;;;;4.40;0.70;;;9.50;99.90;;;;;;5054043;28;20047;-55
2023/12/26 08:38:28;;;;;;;2.97;0.50;;;9.40;99.90;;;;;;5053710;28;20496;-56
2023/12/26 08:40:54;;;;;;;3.17;0.53;;;9.40;99.90;;;;;;5053646;28;20032;-55
2023/12/26 08:43:20;;;;;;;2.10;0.40;;;9.40;99.90;;;;;;5053701;28;20568;-56
2023/12/26 08:45:45;;;;;;;2.40;0.47;;;9.40;99.90;;;;;;5053644;28;20108;-56
2023/12/26 08:48:11;;;;;;;1.30;0.60;;;9.30;99.90;;;;;;5035815;28;20403;-56
2023/12/26 08:50:37;;;;;;;1.60;0.50;;;9.30;99.90;;;;;;5053625;28;20029;-56
2023/12/26 08:53:03;;;;;;;5.20;0.40;;;9.40;99.90;;;;;;5053494;28;20470;-55
2023/12/26 08:55:29;;;;;;;3.30;0.60;;;9.50;99.90;;;;;;5035804;28;20417;-56
2023/12/26 08:57:55;;;;;;;2.37;0.50;;;9.60;99.90;;;;;;5053283;28;20037;-56
2023/12/26 09:00:20;;;;;;;7.97;1.20;;;9.60;99.90;;;;;;5053370;28;20041;-54
2023/12/26 09:02:46;;;;;;;5.73;1.07;;;9.70;99.90;;;;;;5035664;28;20040;-56
2023/12/26 09:05:12;;;;;;;3.67;0.73;;;9.70;99.90;;;;;;5053348;28;20036;-56
2023/12/26 09:07:38;;;;;;;4.07;0.57;;;9.70;99.90;;;;;;5053266;28;20489;-56
2023/12/26 09:10:05;;;;;;;4.50;0.60;;;9.60;99.90;;;;;;5053369;28;20025;-56
2023/12/26 09:12:31;;;;;;;6.80;0.80;;;9.70;99.90;;;;;;5053251;28;20039;-56
2023/12/26 09:14:56;;;;;;;2.00;0.50;;;9.70;99.90;;;;;;5053278;28;20112;-54
2023/12/26 09:17:22;;;;;;;5.60;0.80;;;9.70;99.90;;;;;;5035405;28;20033;-55
2023/12/26 09:19:48;;;;;;;5.30;0.80;;;9.60;99.90;;;;;;5052903;28;20021;-53
2023/12/26 09:22:13;;;;;;;2.10;0.57;;;9.60;99.90;;;;;;5053069;28;20415;-54
2023/12/26 09:24:42;;;;;;;7.20;1.00;;;9.60;99.90;;;;;;5052605;28;20043;-55
2023/12/26 09:27:08;;;;;;;4.88;1.20;;;9.60;99.90;;;;;;5052894;28;20064;-53
2023/12/26 09:29:34;;;;;;;4.50;0.63;;;9.60;99.90;;;;;;5052879;28;20065;-57
2023/12/26 09:31:59;;;;;;;4.90;0.80;;;9.60;99.90;;;;;;5052843;28;20392;-55
2023/12/26 09:34:25;;;;;;;3.10;0.50;;;9.50;99.90;;;;;;5052811;28;20028;-56
2023/12/26 09:36:51;;;;;;;5.87;0.90;;;9.50;99.90;;;;;;5052903;28;20033;-56
2023/12/26 09:39:16;;;;;;;2.30;1.00;;;9.60;99.90;;;;;;5052353;28;20037;-56
2023/12/26 09:41:43;;;;;;;1.57;0.47;;;9.50;99.90;;;;;;5052735;28;20036;-55
2023/12/26 09:44:10;;;;;;;2.33;0.50;;;9.70;99.90;;;;;;5052939;28;20386;-56
2023/12/26 09:46:37;;;;;;;4.80;0.80;;;9.70;99.90;;;;;;5052713;28;20025;-56
2023/12/26 09:49:03;;;;;;;5.50;0.53;;;9.80;99.90;;;;;;5052353;28;20025;-57
2023/12/26 09:51:32;;;;;;;2.77;0.80;;;9.80;99.90;;;;;;5052578;28;20074;-57
2023/12/26 09:54:02;;;;;;;5.75;1.02;;;10.00;99.90;;;;;;5052460;28;20108;-57
2023/12/26 09:56:27;;;;;;;;;;;10.00;99.90;;;;;;5053316;28;20033;-53
2023/12/26 09:58:55;;;;;;;3.40;0.90;;;10.20;99.90;;;;;;5052457;28;20317;-57
2023/12/26 10:01:21;;;;;;;4.87;1.23;;;10.50;99.90;;;;;;5053038;28;20033;-57
2023/12/26 10:03:47;;;;;;;6.03;0.80;;;10.80;99.90;;;;;;5052354;28;20040;-55
2023/12/26 10:06:14;;;;;;;2.03;0.47;;;11.10;99.90;;;;;;5052166;28;20041;-54
2023/12/26 10:08:42;;;;;;;4.00;0.73;;;11.20;99.90;;;;;;5051983;28;20111;-56
2023/12/26 10:11:12;;;;;;;5.30;1.00;;;11.20;99.90;;;;;;5052469;28;20428;-56
2023/12/26 10:13:45;;;;;;;3.40;0.70;;;11.00;99.90;;;;;;5052262;28;20029;-56
2023/12/26 10:16:11;;;;;;;3.85;0.80;;;10.90;99.90;;;;;;5052184;28;20094;-54
2023/12/26 10:18:38;;;;;;;4.50;0.90;;;10.60;99.90;;;;;;5051883;28;20029;-55
2023/12/26 10:21:04;;;;;;;4.57;0.70;;;10.50;99.90;;;;;;5051938;28;20079;-55
2023/12/26 10:23:29;;;;;;;5.33;1.00;;;10.40;99.90;;;;;;5052039;28;20481;-58
2023/12/26 10:25:55;;;;;;;3.67;0.80;;;10.30;99.90;;;;;;5034273;28;20055;-56
2023/12/26 10:28:21;;;;;;;5.27;0.80;;;10.10;99.90;;;;;;5051878;28;20044;-56
2023/12/26 10:30:46;;;;;;;4.23;0.77;;;10.00;99.90;;;;;;5051884;28;20375;-56
2023/12/26 10:33:24;;;;;;;5.00;0.70;;;9.90;99.90;;;;;;5051784;28;20017;-55
2023/12/26 10:36:04;;;;;;;1.73;0.60;;;9.80;99.90;;;;;;5051059;28;20028;-56
2023/12/26 10:38:30;;;;;;;3.97;0.90;;;9.80;99.90;;;;;;5051545;28;20021;-56
2023/12/26 10:41:03;;;;;;;5.17;1.20;;;9.70;99.90;;;;;;5051717;28;20370;-55
2023/12/26 10:43:30;;;;;;;6.07;0.90;;;9.70;99.90;;;;;;5051924;28;20410;-56
2023/12/26 10:45:57;;;;;;;6.83;0.80;;;9.70;99.90;;;;;;5051689;28;20040;-54
2023/12/26 10:48:31;;;;;;;5.63;0.57;;;9.60;99.90;;;;;;5051456;28;20471;-57
2023/12/26 10:50:59;;;;;;;2.90;0.80;;;9.60;99.90;;;;;;5051605;28;20080;-55
2023/12/26 10:53:47;;;;;;;9.70;1.10;;;9.70;99.90;;;;;;5051721;28;20040;-53
2023/12/26 10:56:13;;;;;;;4.30;0.90;;;10.30;99.90;;;;;;5051084;28;20049;-55
2023/12/26 10:58:40;;;;;;;6.25;1.00;;;11.90;99.90;;;;;;5051302;28;20410;-56
2023/12/26 11:01:07;;;;;;;5.57;0.77;;;13.40;99.90;;;;;;5051585;28;20501;-56
2023/12/26 11:03:33;;;;;;;6.38;0.82;;;14.50;99.90;;;;;;5051312;28;20029;-52
2023/12/26 11:05:59;;;;;;;4.82;0.73;;;15.10;99.90;;;;;;5051338;28;20033;-53
2023/12/26 11:08:25;;;;;;;4.85;0.77;;;15.40;99.90;;;;;;5051227;28;20031;-55
2023/12/26 11:10:51;;;;;;;5.38;1.02;;;15.50;99.90;;;;;;5051337;28;20029;-53
2023/12/26 11:13:16;;;;;;;7.07;1.08;;;15.60;99.90;;;;;;5051353;28;20017;-52
2023/12/26 11:15:44;;;;;;;6.72;1.00;;;15.70;99.90;;;;;;5033735;28;20380;-55
2023/12/26 11:18:13;;;;;;;3.63;0.82;;;15.70;99.90;;;;;;5051710;28;20385;-55
2023/12/26 11:20:39;;;;;;;;;;;15.50;99.90;;;;;;5052041;28;20409;-52
2023/12/26 11:23:05;;;;;;;3.67;0.75;;;15.30;99.90;;;;;;5051699;28;19966;-51
2023/12/26 11:25:31;;;;;;;5.72;1.00;;;15.10;99.90;;;;;;5051534;28;20212;-54
2023/12/26 11:27:57;;;;;;;6.30;1.08;;;14.90;99.90;;;;;;5051465;28;20033;-53
2023/12/26 11:30:23;;;;;;;4.95;0.90;;;14.70;99.90;;;;;;5051665;28;20086;-51
2023/12/26 11:32:49;;;;;;;4.25;0.90;;;14.30;99.90;;;;;;5051701;28;20029;-54
2023/12/26 11:35:15;;;;;;;3.15;1.13;;;14.10;99.90;;;;;;5052685;28;20028;-54
2023/12/26 11:37:41;;;;;;;3.58;0.88;;;14.30;99.90;;;;;;5052343;28;20059;-54
2023/12/26 11:40:06;;;;;;;6.25;1.33;;;14.40;99.90;;;;;;5034389;28;20060;-54
2023/12/26 11:42:32;;;;;;;6.18;0.90;;;14.30;99.90;;;;;;5052114;28;20508;-54
2023/12/26 11:44:59;;;;;;;8.70;0.80;;;13.90;99.90;;;;;;5052089;28;20138;-54
2023/12/26 11:47:25;;;;;;;4.03;1.10;;;13.60;99.90;;;;;;5054092;28;20111;-54
2023/12/26 11:49:50;;;;;;;8.48;1.23;;;13.20;99.90;;;;;;5054550;28;20039;-54
2023/12/26 11:52:16;;;;;;;3.63;0.82;;;12.70;99.90;;;;;;5054685;28;20029;-55
2023/12/26 11:54:42;;;;;;;3.30;0.77;;;12.30;99.90;;;;;;5054731;28;20082;-55
2023/12/26 11:57:08;;;;;;;6.82;1.27;;;11.90;99.90;;;;;;5054576;28;20029;-51
2023/12/26 11:59:34;;;;;;;6.93;1.70;;;11.60;99.90;;;;;;5054456;28;20037;-55
2023/12/26 12:02:00;;;;;;;4.57;1.15;;;11.40;99.90;;;;;;5054509;28;20543;-55
2023/12/26 12:04:25;;;;;;;3.53;0.90;;;11.20;99.90;;;;;;5054417;28;20457;-52
2023/12/26 12:07:10;;;;;;;6.35;1.17;;;11.00;99.90;;;;;;5054585;28;20100;-53
2023/12/26 12:09:36;;;;;;;5.13;1.17;;;11.00;99.90;;;;;;5054233;28;20025;-53
2023/12/26 12:12:02;;;;;;;7.20;1.23;;;10.90;99.90;;;;;;5054377;28;20020;-54
2023/12/26 12:14:27;;;;;;;3.40;0.80;;;10.80;99.90;;;;;;5054480;28;20514;-53
2023/12/26 12:16:53;;;;;;;5.30;1.20;;;10.90;99.90;;;;;;5054911;28;20028;-53
2023/12/26 12:19:19;;;;;;;4.53;1.17;;;11.20;99.90;;;;;;5054586;28;20036;-56
2023/12/26 12:21:45;;;;;;;3.40;0.70;;;11.80;99.90;;;;;;5054307;28;20144;-56
2023/12/26 12:24:18;;;;;;;3.03;1.27;;;12.40;99.90;;;;;;5036288;28;20025;-56
2023/12/26 12:27:05;;;;;;;4.88;0.98;;;12.90;99.90;;;;;;5054253;28;20039;-57
2023/12/26 12:29:58;;;;;;;4.15;0.80;;;13.40;99.90;;;;;;5053850;28;20029;-56
2023/12/26 12:32:35;;;;;;;3.90;0.68;;;13.60;99.90;;;;;;5035954;28;20029;-56
2023/12/26 12:35:17;;;;;;;7.47;1.00;;;13.70;99.90;;;;;;5054093;28;20120;-55
2023/12/26 12:37:46;;;;;;;4.13;0.88;;;14.10;99.90;;;;;;5053976;28;20558;-56
2023/12/26 12:40:11;;;;;;;5.27;1.07;;;14.30;99.90;;;;;;5053922;28;20036;-56
2023/12/26 12:42:37;;;;;;;5.80;1.13;;;14.60;99.90;;;;;;5053678;28;20033;-57
2023/12/26 12:45:03;;;;;;;5.15;1.17;;;15.30;99.90;;;;;;5053942;28;20075;-57
2023/12/26 12:47:30;;;;;;;6.13;1.00;;;15.80;99.90;;;;;;5053789;28;20031;-56